Time;durP1;ratioP1;P1;durP2;ratioP2;P2;SDS_P1;SDS_P2;PMS_P1;PMS_P2;Temp;Humidity;BMP_temperature;BMP_pressure;BME280_temperature;BME280_humidity;BME280_pressure;Samples;Min_cycle;Max_cycle;Signal;HPM_P1;HPM_P2
2023/05/19 00:00:16;;;;;;;0.00;0.00;;;11.70;99.90;;;;;;5076073;28;20204;-81
2023/05/19 00:02:42;;;;;;;0.10;0.10;;;11.70;99.90;;;;;;5078799;28;20177;-81
2023/05/19 00:05:09;;;;;;;0.87;0.87;;;11.70;99.90;;;;;;5075895;28;20219;-82
2023/05/19 00:07:37;;;;;;;0.10;0.10;;;11.60;99.90;;;;;;5074964;28;20553;-82
2023/05/19 00:10:04;;;;;;;0.10;0.10;;;11.70;99.90;;;;;;5075136;28;20275;-82
2023/05/19 00:12:30;;;;;;;0.10;0.10;;;11.60;99.90;;;;;;5075741;28;20656;-81
2023/05/19 00:14:55;;;;;;;0.10;0.10;;;11.60;99.90;;;;;;5076776;28;20199;-82
2023/05/19 00:17:21;;;;;;;0.10;0.10;;;11.60;99.90;;;;;;5075681;28;20173;-82
2023/05/19 00:19:47;;;;;;;0.10;0.10;;;11.60;99.90;;;;;;5075905;28;20205;-82
2023/05/19 00:22:13;;;;;;;0.00;0.00;;;11.60;99.90;;;;;;5076490;28;20208;-82
2023/05/19 00:24:39;;;;;;;0.10;0.10;;;11.60;99.90;;;;;;5073394;28;20197;-82
2023/05/19 00:27:04;;;;;;;0.10;0.10;;;11.60;99.90;;;;;;5073568;28;20188;-81
2023/05/19 00:29:30;;;;;;;0.10;0.10;;;11.60;99.90;;;;;;5073909;28;20242;-82
2023/05/19 00:31:55;;;;;;;0.00;0.00;;;11.60;99.90;;;;;;5074313;28;20510;-81
2023/05/19 00:34:21;;;;;;;0.10;0.10;;;11.60;99.90;;;;;;5075247;28;20208;-81
2023/05/19 00:36:46;;;;;;;0.00;0.00;;;11.60;99.90;;;;;;5074518;28;20198;-82
2023/05/19 00:39:12;;;;;;;0.10;0.10;;;11.60;99.90;;;;;;5072748;28;20197;-81
2023/05/19 00:41:37;;;;;;;0.10;0.10;;;11.50;99.90;;;;;;5073433;28;20327;-81
2023/05/19 00:44:03;;;;;;;0.10;0.10;;;11.50;99.90;;;;;;5074937;28;20204;-81
2023/05/19 00:46:29;;;;;;;0.10;0.10;;;11.50;99.90;;;;;;5075313;28;20649;-81
2023/05/19 00:48:55;;;;;;;0.00;0.00;;;11.40;99.90;;;;;;5076033;28;20181;-82
2023/05/19 00:51:22;;;;;;;0.10;0.10;;;11.40;99.90;;;;;;5076927;28;20194;-82
2023/05/19 00:53:50;;;;;;;0.10;0.10;;;11.30;99.90;;;;;;5072478;28;20585;-82
2023/05/19 00:56:17;;;;;;;0.10;0.10;;;11.20;99.90;;;;;;5073101;28;20206;-82
2023/05/19 00:58:43;;;;;;;0.10;0.10;;;11.20;99.90;;;;;;5072971;28;20243;-82
2023/05/19 01:01:10;;;;;;;0.10;0.10;;;11.20;99.90;;;;;;5074105;28;20197;-82
2023/05/19 01:03:36;;;;;;;0.10;0.10;;;11.20;99.90;;;;;;5074017;28;20205;-82
2023/05/19 01:06:06;;;;;;;0.10;0.10;;;11.10;99.90;;;;;;5073969;28;20190;-81
2023/05/19 01:08:33;;;;;;;0.10;0.10;;;11.20;99.90;;;;;;5072361;28;20313;-81
2023/05/19 01:10:59;;;;;;;0.03;0.03;;;11.20;99.90;;;;;;5073472;28;20189;-81
2023/05/19 01:13:26;;;;;;;0.10;0.10;;;11.20;99.90;;;;;;5074497;28;20275;-82
2023/05/19 01:16:11;;;;;;;0.10;0.10;;;11.20;99.90;;;;;;5073651;28;20208;-81
2023/05/19 01:19:00;;;;;;;0.10;0.10;;;11.20;99.90;;;;;;5073232;28;20195;-82
2023/05/19 01:22:05;;;;;;;0.10;0.10;;;11.20;99.90;;;;;;5073054;28;20545;-82
2023/05/19 01:24:49;;;;;;;0.10;0.10;;;11.20;99.90;;;;;;5051918;28;20218;-82
2023/05/19 01:27:39;;;;;;;0.10;0.10;;;11.20;99.90;;;;;;5074863;28;20169;-81
2023/05/19 01:30:25;;;;;;;0.10;0.10;;;11.20;99.90;;;;;;5073393;28;20177;-81
2023/05/19 01:32:54;;;;;;;0.10;0.10;;;11.10;99.90;;;;;;5074247;28;20181;-81
2023/05/19 01:35:23;;;;;;;0.10;0.10;;;11.10;99.90;;;;;;5072541;28;20673;-82
2023/05/19 01:37:52;;;;;;;0.10;0.10;;;11.10;99.90;;;;;;5071707;28;20276;-82
2023/05/19 01:40:20;;;;;;;0.10;0.10;;;11.00;99.90;;;;;;5074507;28;20200;-82
2023/05/19 01:42:46;;;;;;;0.10;0.10;;;11.00;99.90;;;;;;5072354;28;20277;-82
2023/05/19 01:45:12;;;;;;;0.10;0.10;;;11.00;99.90;;;;;;5072099;28;20277;-81
2023/05/19 01:47:41;;;;;;;0.10;0.10;;;10.90;99.90;;;;;;5073540;28;20180;-82
2023/05/19 01:50:07;;;;;;;0.00;0.00;;;10.90;99.90;;;;;;5071944;28;20181;-81
2023/05/19 01:52:32;;;;;;;0.10;0.10;;;10.80;99.90;;;;;;5073359;28;20197;-82
2023/05/19 01:54:58;;;;;;;0.10;0.10;;;10.90;99.90;;;;;;5072527;28;20232;-82
2023/05/19 01:57:39;;;;;;;0.10;0.10;;;10.90;99.90;;;;;;5073143;28;20181;-82
2023/05/19 02:00:20;;;;;;;0.10;0.10;;;10.80;99.90;;;;;;5073085;28;20177;-82
2023/05/19 02:03:17;;;;;;;0.10;0.10;;;10.80;99.90;;;;;;5073979;28;20195;-82
2023/05/19 02:05:52;;;;;;;0.10;0.10;;;10.70;99.90;;;;;;5074096;28;20558;-82
2023/05/19 02:08:37;;;;;;;0.10;0.10;;;10.70;99.90;;;;;;5071597;28;20183;-82
2023/05/19 02:11:11;;;;;;;0.10;0.10;;;10.70;99.90;;;;;;5073256;28;20263;-82
2023/05/19 02:13:42;;;;;;;0.10;0.10;;;10.70;99.90;;;;;;5071979;28;20220;-82
2023/05/19 02:16:09;;;;;;;0.10;0.10;;;10.70;99.90;;;;;;5072250;28;20181;-82
2023/05/19 02:18:35;;;;;;;0.10;0.10;;;10.60;99.90;;;;;;5070986;28;20618;-82
2023/05/19 02:21:01;;;;;;;0.10;0.10;;;10.70;99.90;;;;;;5073483;28;20203;-81
2023/05/19 02:23:26;;;;;;;0.10;0.10;;;10.70;99.90;;;;;;5071849;28;20180;-82
2023/05/19 02:25:52;;;;;;;0.10;0.10;;;10.60;99.90;;;;;;5071058;28;20187;-80
2023/05/19 02:28:18;;;;;;;0.07;0.07;;;10.60;99.90;;;;;;5071595;28;20173;-82
2023/05/19 02:30:43;;;;;;;0.10;0.10;;;10.60;99.90;;;;;;5074311;28;20189;-82
2023/05/19 02:33:10;;;;;;;0.00;0.00;;;10.60;99.90;;;;;;5071847;28;20186;-81
2023/05/19 02:35:36;;;;;;;0.00;0.00;;;10.60;99.90;;;;;;5070129;28;20736;-81
2023/05/19 02:38:01;;;;;;;0.10;0.10;;;10.50;99.90;;;;;;5071356;28;20271;-82
2023/05/19 02:40:27;;;;;;;0.10;0.10;;;10.50;99.90;;;;;;5072684;28;20212;-81
2023/05/19 02:42:52;;;;;;;0.10;0.10;;;10.50;99.90;;;;;;5072535;28;20280;-81
2023/05/19 02:45:18;;;;;;;0.07;0.07;;;10.50;99.90;;;;;;5071870;28;20208;-81
2023/05/19 02:47:43;;;;;;;0.10;0.10;;;10.40;99.90;;;;;;5072906;28;20192;-81
2023/05/19 02:50:09;;;;;;;0.10;0.10;;;10.50;99.90;;;;;;5074396;28;20196;-82
2023/05/19 02:52:35;;;;;;;0.00;0.00;;;10.50;99.90;;;;;;5073272;28;20187;-81
2023/05/19 02:55:00;;;;;;;0.00;0.00;;;10.40;99.90;;;;;;5070016;28;20227;-82
2023/05/19 02:57:27;;;;;;;0.10;0.10;;;10.40;99.90;;;;;;5069917;28;20263;-82
2023/05/19 02:59:53;;;;;;;0.10;0.10;;;10.50;99.90;;;;;;5070079;28;20184;-81
2023/05/19 03:02:18;;;;;;;0.10;0.10;;;10.50;99.90;;;;;;5072431;28;20218;-82
2023/05/19 03:04:44;;;;;;;0.10;0.10;;;10.40;99.90;;;;;;5071465;28;20685;-82
2023/05/19 03:07:09;;;;;;;0.10;0.10;;;10.40;99.90;;;;;;5071416;28;20262;-82
2023/05/19 03:09:36;;;;;;;0.10;0.10;;;10.30;99.90;;;;;;5071886;28;20191;-82
2023/05/19 03:12:03;;;;;;;0.10;0.10;;;10.20;99.90;;;;;;5072705;28;20185;-82
2023/05/19 03:14:29;;;;;;;0.10;0.10;;;10.20;99.90;;;;;;5074060;28;20195;-82
2023/05/19 03:16:54;;;;;;;0.10;0.10;;;10.20;99.90;;;;;;5073273;28;20203;-80
2023/05/19 03:19:20;;;;;;;0.10;0.10;;;10.10;99.90;;;;;;5070931;28;20287;-81
2023/05/19 03:21:46;;;;;;;0.10;0.10;;;10.10;99.90;;;;;;5071991;28;20197;-81
2023/05/19 03:24:12;;;;;;;0.10;0.10;;;10.10;99.90;;;;;;5070639;28;20600;-81
2023/05/19 03:26:37;;;;;;;0.10;0.10;;;10.10;99.90;;;;;;5071853;28;20192;-82
2023/05/19 03:29:03;;;;;;;0.10;0.10;;;10.10;99.90;;;;;;5073627;28;20181;-81
2023/05/19 03:31:29;;;;;;;0.10;0.10;;;10.10;99.90;;;;;;5073156;28;20187;-82
2023/05/19 03:33:56;;;;;;;0.10;0.10;;;10.20;99.90;;;;;;5075785;28;20209;-82
2023/05/19 03:36:22;;;;;;;0.10;0.10;;;10.30;99.90;;;;;;5075259;28;20195;-82
2023/05/19 03:38:48;;;;;;;0.10;0.10;;;10.30;99.90;;;;;;5075429;28;20193;-82
2023/05/19 03:41:14;;;;;;;0.10;0.10;;;10.30;99.90;;;;;;5076761;28;20204;-82
2023/05/19 03:43:39;;;;;;;0.10;0.10;;;10.20;99.90;;;;;;5073707;28;20207;-82
2023/05/19 03:46:05;;;;;;;0.07;0.07;;;10.20;99.90;;;;;;5076070;28;20195;-82
2023/05/19 03:48:30;;;;;;;0.10;0.10;;;10.10;99.90;;;;;;5074536;28;20260;-82
2023/05/19 03:50:56;;;;;;;0.10;0.10;;;10.10;99.90;;;;;;5076430;28;20272;-81
2023/05/19 03:53:22;;;;;;;0.10;0.10;;;10.10;99.90;;;;;;5074478;28;20189;-82
2023/05/19 03:55:49;;;;;;;0.10;0.10;;;10.30;99.90;;;;;;5076102;28;20188;-82
2023/05/19 03:58:14;;;;;;;0.10;0.10;;;10.30;99.90;;;;;;5076165;28;20210;-82
2023/05/19 04:00:41;;;;;;;0.10;0.10;;;10.60;99.90;;;;;;5077433;28;20604;-82
2023/05/19 04:03:07;;;;;;;0.10;0.10;;;11.10;99.90;;;;;;5073469;28;20830;-82
2023/05/19 04:05:33;;;;;;;0.10;0.10;;;11.70;99.90;;;;;;5074097;28;20208;-81
2023/05/19 04:07:58;;;;;;;0.10;0.10;;;12.10;99.90;;;;;;5073720;28;20662;-82
2023/05/19 04:10:24;;;;;;;0.00;0.00;;;12.00;99.90;;;;;;5076260;28;20232;-81
2023/05/19 04:12:50;;;;;;;0.10;0.10;;;11.90;99.90;;;;;;5075667;28;20216;-82
2023/05/19 04:15:15;;;;;;;0.10;0.10;;;12.00;99.90;;;;;;5074310;28;20209;-82
2023/05/19 04:17:41;;;;;;;0.10;0.10;;;11.90;99.90;;;;;;5073017;28;20720;-82
2023/05/19 04:20:07;;;;;;;0.10;0.10;;;12.10;99.90;;;;;;5073809;28;20270;-82
2023/05/19 04:22:32;;;;;;;0.10;0.10;;;11.90;99.90;;;;;;5073516;28;20256;-82
2023/05/19 04:24:59;;;;;;;0.10;0.10;;;11.60;99.90;;;;;;5076834;28;20200;-82
2023/05/19 04:27:26;;;;;;;0.00;0.00;;;11.60;99.90;;;;;;5073053;28;20210;-82
2023/05/19 04:29:53;;;;;;;0.10;0.10;;;11.30;99.90;;;;;;5080471;28;20235;-81
2023/05/19 04:32:19;;;;;;;0.10;0.10;;;11.20;99.90;;;;;;5077192;28;20188;-81
2023/05/19 04:34:45;;;;;;;0.10;0.10;;;11.30;99.90;;;;;;5077556;28;20208;-81
2023/05/19 04:37:15;;;;;;;0.10;0.10;;;11.40;99.90;;;;;;5073514;28;20193;-81
2023/05/19 04:39:43;;;;;;;0.10;0.10;;;11.20;99.90;;;;;;5078950;28;20279;-82
2023/05/19 04:42:10;;;;;;;0.10;0.10;;;11.20;99.90;;;;;;5075489;28;20196;-81
2023/05/19 04:44:39;;;;;;;0.10;0.10;;;11.10;99.90;;;;;;5073841;28;21052;-82
2023/05/19 04:47:07;;;;;;;0.10;0.10;;;11.00;99.90;;;;;;5074552;28;20192;-82
2023/05/19 04:49:37;;;;;;;0.10;0.10;;;11.20;99.90;;;;;;5075197;28;20287;-81
2023/05/19 04:52:05;;;;;;;0.10;0.10;;;11.30;99.90;;;;;;5072645;28;20192;-82
2023/05/19 04:54:30;;;;;;;0.10;0.10;;;11.50;99.90;;;;;;5072972;28;20226;-82
2023/05/19 04:56:56;;;;;;;0.10;0.10;;;11.60;99.90;;;;;;5073572;28;20285;-82
2023/05/19 04:59:22;;;;;;;0.10;0.10;;;11.50;99.90;;;;;;5075187;28;20200;-82
2023/05/19 05:01:47;;;;;;;0.10;0.10;;;11.30;99.90;;;;;;5073650;28;20260;-82
2023/05/19 05:04:13;;;;;;;0.10;0.10;;;11.30;99.90;;;;;;5074536;28;20261;-82
2023/05/19 05:06:41;;;;;;;0.10;0.10;;;11.50;99.90;;;;;;5074827;28;20183;-82
2023/05/19 05:09:06;;;;;;;0.10;0.10;;;11.50;99.90;;;;;;5072956;28;20192;-82
2023/05/19 05:11:32;;;;;;;0.10;0.10;;;11.50;99.90;;;;;;5074555;28;20555;-82
2023/05/19 05:13:58;;;;;;;0.10;0.10;;;11.60;99.90;;;;;;5074400;28;20250;-82
2023/05/19 05:16:24;;;;;;;0.07;0.07;;;11.60;99.90;;;;;;5072377;28;20745;-83
2023/05/19 05:18:50;;;;;;;0.10;0.10;;;11.70;99.90;;;;;;5074403;28;20180;-82
2023/05/19 05:21:16;;;;;;;0.10;0.10;;;11.70;99.90;;;;;;5072032;28;20208;-83
2023/05/19 05:23:42;;;;;;;0.10;0.10;;;11.80;99.90;;;;;;5073819;28;20207;-82
2023/05/19 05:26:18;;;;;;;0.10;0.10;;;11.80;99.90;;;;;;5071234;28;20303;-82
2023/05/19 05:28:43;;;;;;;0.10;0.10;;;11.90;99.90;;;;;;5069151;28;20604;-82
2023/05/19 05:31:09;;;;;;;0.10;0.10;;;12.00;99.90;;;;;;5089685;28;20326;-82
2023/05/19 05:33:34;;;;;;;0.10;0.10;;;12.00;99.90;;;;;;5079303;28;20207;-82
2023/05/19 05:36:00;;;;;;;0.10;0.10;;;12.10;99.90;;;;;;5060689;28;20189;-82
2023/05/19 05:38:25;;;;;;;0.10;0.10;;;12.10;99.90;;;;;;5073028;28;20196;-82
2023/05/19 05:40:51;;;;;;;0.10;0.10;;;12.10;99.90;;;;;;5073481;28;20277;-82
2023/05/19 05:43:16;;;;;;;0.10;0.10;;;12.20;99.90;;;;;;5075260;28;20173;-82
2023/05/19 05:45:42;;;;;;;0.10;0.10;;;12.30;99.90;;;;;;5071892;28;20180;-82
2023/05/19 05:48:08;;;;;;;0.10;0.10;;;12.50;99.90;;;;;;5075030;28;20196;-82
2023/05/19 05:50:34;;;;;;;0.10;0.10;;;12.70;99.90;;;;;;5073929;28;20561;-82
2023/05/19 05:53:02;;;;;;;0.10;0.10;;;12.80;99.90;;;;;;5075218;28;20284;-85
2023/05/19 05:55:28;;;;;;;0.10;0.10;;;13.20;99.90;;;;;;5073734;28;20203;-82
2023/05/19 05:57:55;;;;;;;0.10;0.10;;;13.20;99.90;;;;;;5074804;28;20486;-83
2023/05/19 06:00:21;;;;;;;0.10;0.10;;;13.30;99.90;;;;;;5076719;28;20616;-82
2023/05/19 06:02:50;;;;;;;0.10;0.10;;;13.30;99.90;;;;;;5074268;28;20223;-83
2023/05/19 06:05:15;;;;;;;0.10;0.10;;;13.60;99.90;;;;;;5069238;28;20200;-82
2023/05/19 06:07:41;;;;;;;0.10;0.10;;;13.70;99.90;;;;;;5073608;28;20651;-83
2023/05/19 06:10:08;;;;;;;0.10;0.10;;;13.80;99.90;;;;;;5076712;28;20269;-83
2023/05/19 06:12:34;;;;;;;0.10;0.10;;;13.90;99.90;;;;;;5071666;28;20185;-83
2023/05/19 06:15:02;;;;;;;0.10;0.10;;;14.10;99.90;;;;;;5070371;28;20205;-82
2023/05/19 06:17:27;;;;;;;0.10;0.10;;;14.10;99.90;;;;;;5072038;28;20189;-81
2023/05/19 06:19:53;;;;;;;0.10;0.10;;;14.00;99.90;;;;;;5072195;28;20234;-83
2023/05/19 06:22:18;;;;;;;0.10;0.10;;;14.00;99.90;;;;;;5074761;28;20771;-83
2023/05/19 06:24:44;;;;;;;0.10;0.10;;;14.10;99.90;;;;;;5074697;28;20661;-82
2023/05/19 06:27:10;;;;;;;0.10;0.10;;;14.40;99.90;;;;;;5071630;28;20601;-84
2023/05/19 06:29:35;;;;;;;0.10;0.10;;;14.40;99.90;;;;;;5071655;28;20187;-83
2023/05/19 06:32:01;;;;;;;0.10;0.10;;;14.40;99.90;;;;;;5070975;28;20191;-83
2023/05/19 06:34:26;;;;;;;0.10;0.10;;;14.60;99.90;;;;;;5073522;28;20285;-83
2023/05/19 06:36:52;;;;;;;0.10;0.10;;;14.60;99.90;;;;;;5071147;28;20198;-82
2023/05/19 06:39:17;;;;;;;0.10;0.10;;;14.50;99.90;;;;;;5068555;28;20192;-83
2023/05/19 06:41:43;;;;;;;0.10;0.10;;;14.50;99.90;;;;;;5073733;28;20226;-82
2023/05/19 06:44:08;;;;;;;0.10;0.10;;;14.70;99.90;;;;;;5071378;28;20200;-82
2023/05/19 06:46:34;;;;;;;0.10;0.10;;;14.80;99.90;;;;;;5073185;28;20195;-83
2023/05/19 06:49:00;;;;;;;0.10;0.10;;;14.70;99.90;;;;;;5072285;28;20179;-83
2023/05/19 06:51:25;;;;;;;0.10;0.10;;;14.80;99.90;;;;;;5070659;28;20278;-81
2023/05/19 06:53:51;;;;;;;0.10;0.10;;;14.70;99.90;;;;;;5068357;28;20249;-81
2023/05/19 06:56:17;;;;;;;0.10;0.10;;;14.50;99.90;;;;;;5086113;28;20217;-81
2023/05/19 06:58:43;;;;;;;0.10;0.10;;;14.40;99.90;;;;;;5073042;28;20596;-81
2023/05/19 07:01:09;;;;;;;0.10;0.10;;;14.90;99.90;;;;;;5065664;28;20211;-80
2023/05/19 07:03:35;;;;;;;0.10;0.10;;;14.70;99.90;;;;;;5071365;28;20222;-80
2023/05/19 07:06:00;;;;;;;0.10;0.10;;;14.60;99.90;;;;;;5068211;28;20183;-80
2023/05/19 07:08:26;;;;;;;0.10;0.10;;;14.80;99.90;;;;;;5069102;28;20723;-81
2023/05/19 07:10:52;;;;;;;0.00;0.00;;;14.90;99.90;;;;;;5072554;28;20215;-81
2023/05/19 07:13:18;;;;;;;0.10;0.10;;;14.90;99.90;;;;;;5073865;28;20294;-81
2023/05/19 07:15:43;;;;;;;0.10;0.10;;;15.00;99.90;;;;;;5071602;28;20202;-80
2023/05/19 07:18:09;;;;;;;0.10;0.10;;;15.20;99.90;;;;;;5072625;28;20180;-81
2023/05/19 07:20:35;;;;;;;0.10;0.10;;;15.40;99.90;;;;;;5069328;28;20524;-81
2023/05/19 07:23:01;;;;;;;0.10;0.10;;;15.20;99.90;;;;;;5071402;28;20174;-81
2023/05/19 07:25:29;;;;;;;0.10;0.10;;;15.20;99.90;;;;;;5071488;28;20794;-81
2023/05/19 07:27:55;;;;;;;0.10;0.10;;;15.30;99.90;;;;;;5067922;28;20180;-83
2023/05/19 07:30:21;;;;;;;0.10;0.10;;;15.20;99.90;;;;;;5073585;28;20183;-80
2023/05/19 07:32:46;;;;;;;0.10;0.10;;;15.30;99.90;;;;;;5073744;28;20200;-80
2023/05/19 07:35:12;;;;;;;0.10;0.10;;;15.50;99.90;;;;;;5077518;28;20306;-80
2023/05/19 07:37:37;;;;;;;0.10;0.10;;;15.40;99.90;;;;;;5078644;28;20283;-80
2023/05/19 07:40:05;;;;;;;0.10;0.10;;;15.20;99.90;;;;;;5079804;28;20183;-80
2023/05/19 07:42:31;;;;;;;0.10;0.10;;;15.20;99.90;;;;;;5076493;28;20593;-80
2023/05/19 07:44:56;;;;;;;0.10;0.10;;;15.10;99.90;;;;;;5078615;28;20205;-80
2023/05/19 07:47:22;;;;;;;0.10;0.10;;;15.30;99.90;;;;;;5072830;28;20700;-80
2023/05/19 07:49:47;;;;;;;0.10;0.10;;;15.60;99.90;;;;;;5072858;28;20193;-81
2023/05/19 07:52:13;;;;;;;0.10;0.10;;;15.80;99.90;;;;;;5073733;28;20181;-80
2023/05/19 07:54:38;;;;;;;0.10;0.10;;;15.90;99.90;;;;;;5073521;28;20207;-80
2023/05/19 07:57:04;;;;;;;0.10;0.10;;;16.10;99.90;;;;;;5075437;28;20204;-80
2023/05/19 07:59:30;;;;;;;0.10;0.10;;;16.20;99.90;;;;;;5073518;28;20740;-81
2023/05/19 08:01:55;;;;;;;0.10;0.10;;;16.10;99.90;;;;;;5074337;28;20204;-81
2023/05/19 08:04:21;;;;;;;0.10;0.10;;;16.30;99.90;;;;;;5073948;28;20212;-80
2023/05/19 08:06:47;;;;;;;0.10;0.10;;;16.60;99.90;;;;;;5072431;28;20624;-80
2023/05/19 08:09:12;;;;;;;0.10;0.10;;;16.40;99.90;;;;;;5073437;28;20251;-82
2023/05/19 08:11:38;;;;;;;0.10;0.10;;;16.20;99.90;;;;;;5075098;28;20216;-82
2023/05/19 08:14:03;;;;;;;0.10;0.10;;;16.30;99.90;;;;;;5073530;28;20200;-81
2023/05/19 08:16:29;;;;;;;0.10;0.10;;;16.60;99.90;;;;;;5071213;28;20233;-81
2023/05/19 08:18:54;;;;;;;0.10;0.10;;;16.60;99.90;;;;;;5073789;28;20188;-82
2023/05/19 08:21:20;;;;;;;0.10;0.10;;;16.40;99.90;;;;;;5076345;28;20204;-82
2023/05/19 08:23:46;;;;;;;0.10;0.10;;;16.70;99.90;;;;;;5075825;28;20208;-82
2023/05/19 08:26:11;;;;;;;0.10;0.10;;;17.00;99.90;;;;;;5076477;28;20204;-81
2023/05/19 08:28:37;;;;;;;0.10;0.10;;;17.40;99.90;;;;;;5075597;28;20189;-82
2023/05/19 08:31:02;;;;;;;0.10;0.10;;;16.80;99.90;;;;;;5078047;28;20192;-82
2023/05/19 08:33:28;;;;;;;0.10;0.10;;;17.20;99.90;;;;;;5072667;28;20185;-81
2023/05/19 08:35:56;;;;;;;0.10;0.10;;;16.70;99.90;;;;;;5074957;28;20679;-81
2023/05/19 08:38:22;;;;;;;0.10;0.10;;;16.70;99.90;;;;;;5075438;28;20189;-82
2023/05/19 08:40:48;;;;;;;0.00;0.00;;;17.00;99.90;;;;;;5073178;28;20219;-82
2023/05/19 08:43:13;;;;;;;0.10;0.10;;;17.40;99.90;;;;;;5079654;28;20235;-82
2023/05/19 08:45:43;;;;;;;0.10;0.10;;;17.00;99.90;;;;;;5074125;28;20200;-82
2023/05/19 08:48:09;;;;;;;0.10;0.10;;;17.30;99.90;;;;;;5083190;28;20191;-81
2023/05/19 08:50:38;;;;;;;0.10;0.10;;;17.40;99.90;;;;;;5082630;28;20177;-82
2023/05/19 08:53:15;;;;;;;0.10;0.10;;;17.70;99.90;;;;;;5081772;28;20196;-82
2023/05/19 08:56:00;;;;;;;0.10;0.10;;;17.80;99.90;;;;;;5073259;28;20208;-82
2023/05/19 08:58:26;;;;;;;0.10;0.10;;;17.60;99.90;;;;;;5074749;28;20181;-81
2023/05/19 09:00:52;;;;;;;0.10;0.10;;;17.50;99.90;;;;;;5074212;28;20706;-82
2023/05/19 09:03:19;;;;;;;0.10;0.10;;;17.40;99.90;;;;;;5072607;28;20269;-82
2023/05/19 09:05:45;;;;;;;0.10;0.10;;;17.50;99.90;;;;;;5075532;28;20226;-82
2023/05/19 09:08:11;;;;;;;0.10;0.10;;;17.40;99.90;;;;;;5075560;28;20184;-82
2023/05/19 09:10:37;;;;;;;0.70;0.70;;;17.70;99.90;;;;;;5074074;28;20199;-86
2023/05/19 09:13:04;;;;;;;0.10;0.10;;;17.90;99.90;;;;;;5068534;28;20531;-87
2023/05/19 09:15:30;;;;;;;0.10;0.10;;;17.70;99.90;;;;;;5076663;28;20269;-86
2023/05/19 09:18:27;;;;;;;0.10;0.10;;;17.80;99.90;;;;;;5071811;28;20181;-86
2023/05/19 09:21:01;;;;;;;0.10;0.10;;;18.00;99.90;;;;;;5072006;28;20262;-87
2023/05/19 09:23:32;;;;;;;0.10;0.10;;;18.20;99.90;;;;;;5074630;28;20189;-86
2023/05/19 09:26:02;;;;;;;0.10;0.10;;;18.30;99.90;;;;;;5070873;28;20283;-85
2023/05/19 09:28:30;;;;;;;0.10;0.10;;;17.90;99.90;;;;;;5072864;28;20681;-86
2023/05/19 09:31:03;;;;;;;0.10;0.10;;;18.10;99.90;;;;;;5074162;28;20544;-84
2023/05/19 09:33:30;;;;;;;0.10;0.10;;;18.30;99.90;;;;;;5056245;28;20216;-85
2023/05/19 09:35:56;;;;;;;0.10;0.10;;;18.70;99.90;;;;;;5071297;28;20187;-85
2023/05/19 09:38:26;;;;;;;0.10;0.10;;;18.40;99.90;;;;;;5069086;28;20195;-85
2023/05/19 09:40:56;;;;;;;0.10;0.10;;;18.10;99.90;;;;;;5068814;28;20238;-85
2023/05/19 09:43:21;;;;;;;0.10;0.10;;;18.00;99.90;;;;;;5070120;28;20192;-85
2023/05/19 09:45:48;;;;;;;0.10;0.10;;;18.60;99.90;;;;;;5070077;28;20180;-86
2023/05/19 09:48:17;;;;;;;0.10;0.10;;;18.70;99.90;;;;;;5072992;28;21321;-88
2023/05/19 09:50:44;;;;;;;0.10;0.10;;;18.40;99.90;;;;;;5071548;28;20707;-87
2023/05/19 09:53:12;;;;;;;0.10;0.10;;;18.00;99.90;;;;;;5073440;28;20218;-86
2023/05/19 09:55:40;;;;;;;0.10;0.10;;;18.00;99.90;;;;;;5073577;28;20204;-86
2023/05/19 09:58:06;;;;;;;0.10;0.10;;;18.50;99.90;;;;;;5071795;28;20196;-86
2023/05/19 10:00:32;;;;;;;0.10;0.10;;;18.60;99.90;;;;;;5071110;28;20187;-82
2023/05/19 10:02:59;;;;;;;0.10;0.10;;;18.60;99.90;;;;;;5070510;28;20320;-81
2023/05/19 10:05:26;;;;;;;0.10;0.10;;;18.20;99.90;;;;;;5071737;28;20202;-82
2023/05/19 10:07:53;;;;;;;0.10;0.10;;;18.50;99.90;;;;;;5069067;28;20237;-82
2023/05/19 10:10:20;;;;;;;0.10;0.10;;;18.90;99.90;;;;;;5075800;28;20662;-81
2023/05/19 10:12:47;;;;;;;0.10;0.10;;;18.90;99.90;;;;;;5077120;28;20310;-81
2023/05/19 10:15:14;;;;;;;0.20;0.20;;;19.00;99.90;;;;;;5077007;28;20204;-82
2023/05/19 10:17:41;;;;;;;0.10;0.10;;;18.80;99.90;;;;;;5073318;28;20189;-82
2023/05/19 10:20:11;;;;;;;0.10;0.10;;;18.70;99.90;;;;;;5069951;28;20193;-82
2023/05/19 10:22:41;;;;;;;0.10;0.10;;;18.80;99.90;;;;;;5071287;28;20207;-82
2023/05/19 10:25:08;;;;;;;0.10;0.10;;;19.10;99.90;;;;;;5071709;28;20231;-81
2023/05/19 10:27:53;;;;;;;0.10;0.10;;;19.20;99.90;;;;;;5065716;28;20273;-82
2023/05/19 10:30:35;;;;;;;0.10;0.10;;;18.70;99.90;;;;;;5070789;28;20181;-82
2023/05/19 10:33:03;;;;;;;0.10;0.10;;;18.80;99.90;;;;;;5070992;28;20188;-82
2023/05/19 10:36:07;;;;;;;0.10;0.10;;;18.80;99.90;;;;;;5072561;28;20208;-82
2023/05/19 10:39:01;;;;;;;0.10;0.10;;;19.30;99.90;;;;;;5071032;28;20296;-82
2023/05/19 10:41:45;;;;;;;0.10;0.10;;;19.30;99.90;;;;;;5029315;28;20842;-82
2023/05/19 10:44:26;;;;;;;0.10;0.10;;;19.70;99.90;;;;;;5071607;28;20692;-82
2023/05/19 10:46:52;;;;;;;0.10;0.10;;;19.90;99.90;;;;;;5069437;28;20177;-82
2023/05/19 10:49:21;;;;;;;0.10;0.10;;;19.40;99.90;;;;;;5068617;28;20194;-82
2023/05/19 10:51:47;;;;;;;0.10;0.10;;;19.50;99.90;;;;;;5070222;28;20217;-82
2023/05/19 10:54:15;;;;;;;0.10;0.10;;;19.00;99.90;;;;;;5067383;28;20289;-81
2023/05/19 10:56:45;;;;;;;0.10;0.10;;;19.50;99.90;;;;;;5074516;28;20201;-82
2023/05/19 10:59:31;;;;;;;0.10;0.10;;;19.30;99.90;;;;;;5074597;28;20249;-81
2023/05/19 11:02:01;;;;;;;0.10;0.10;;;19.70;99.90;;;;;;5071313;28;20204;-81
2023/05/19 11:04:49;;;;;;;0.10;0.10;;;19.20;99.90;;;;;;5067957;28;20303;-81
2023/05/19 11:07:21;;;;;;;0.10;0.10;;;19.60;99.90;;;;;;5067223;28;20276;-82
2023/05/19 11:09:53;;;;;;;0.10;0.10;;;19.20;99.90;;;;;;5071228;28;20180;-82
2023/05/19 11:12:22;;;;;;;0.10;0.10;;;19.20;99.90;;;;;;5067566;28;20730;-82
2023/05/19 11:14:51;;;;;;;0.10;0.10;;;19.20;99.90;;;;;;5069967;28;20831;-82
2023/05/19 11:17:20;;;;;;;0.10;0.10;;;18.70;99.90;;;;;;5066180;28;20233;-82
2023/05/19 11:19:56;;;;;;;0.10;0.10;;;19.00;99.90;;;;;;5069815;28;20208;-82
2023/05/19 11:22:26;;;;;;;0.10;0.10;;;19.60;99.90;;;;;;5069024;28;20226;-82
2023/05/19 11:24:56;;;;;;;3.50;3.30;;;19.70;99.90;;;;;;5069870;28;20220;-82
2023/05/19 11:27:32;;;;;;;0.10;0.10;;;20.10;99.90;;;;;;5070084;28;20185;-83
2023/05/19 11:30:18;;;;;;;0.10;0.10;;;20.40;99.90;;;;;;5067561;28;20635;-82
2023/05/19 11:32:46;;;;;;;0.10;0.10;;;20.20;99.90;;;;;;5067130;28;20575;-82
2023/05/19 11:35:13;;;;;;;0.10;0.10;;;20.00;99.90;;;;;;5066925;28;20791;-82
2023/05/19 11:37:42;;;;;;;0.10;0.10;;;19.70;99.90;;;;;;5067631;28;20192;-82
2023/05/19 11:40:08;;;;;;;0.10;0.10;;;20.10;99.90;;;;;;5067689;28;20184;-81
2023/05/19 11:42:35;;;;;;;0.10;0.10;;;19.60;99.90;;;;;;5066908;28;20719;-82
2023/05/19 11:45:02;;;;;;;0.10;0.10;;;20.00;99.90;;;;;;5066009;28;20196;-82
2023/05/19 11:47:29;;;;;;;0.10;0.10;;;20.50;99.90;;;;;;5055545;28;20192;-82
2023/05/19 11:49:55;;;;;;;0.10;0.10;;;20.00;99.90;;;;;;5071302;28;20203;-82
2023/05/19 11:52:22;;;;;;;0.10;0.10;;;19.90;99.90;;;;;;5074052;28;20279;-82
2023/05/19 11:54:48;;;;;;;0.10;0.10;;;19.70;99.90;;;;;;5073155;28;20215;-82
2023/05/19 11:57:13;;;;;;;0.10;0.10;;;20.30;99.90;;;;;;5076836;28;20208;-82
2023/05/19 11:59:44;;;;;;;0.10;0.10;;;20.00;99.90;;;;;;5074217;28;20221;-82
2023/05/19 12:02:19;;;;;;;0.10;0.10;;;20.00;99.90;;;;;;5071502;28;20491;-82
2023/05/19 12:04:45;;;;;;;0.10;0.10;;;19.90;99.90;;;;;;5072745;28;20265;-82
2023/05/19 12:07:11;;;;;;;0.10;0.10;;;20.00;99.90;;;;;;5073421;28;20718;-82
2023/05/19 12:09:37;;;;;;;0.10;0.10;;;19.80;99.90;;;;;;5072210;28;20251;-82
2023/05/19 12:12:03;;;;;;;0.10;0.10;;;19.60;99.90;;;;;;5073720;28;20431;-82
2023/05/19 12:14:30;;;;;;;0.10;0.10;;;19.80;99.90;;;;;;5071267;28;20217;-82
2023/05/19 12:16:56;;;;;;;0.10;0.10;;;19.90;99.90;;;;;;5076410;28;20177;-82
2023/05/19 12:19:24;;;;;;;0.10;0.10;;;19.90;99.90;;;;;;5072445;28;20212;-82
2023/05/19 12:21:50;;;;;;;0.10;0.10;;;20.10;99.90;;;;;;5071685;28;20323;-82
2023/05/19 12:24:16;;;;;;;0.10;0.10;;;19.60;99.90;;;;;;5071597;28;20743;-82
2023/05/19 12:26:42;;;;;;;0.13;0.13;;;19.80;99.90;;;;;;5072688;28;20181;-83
2023/05/19 12:29:07;;;;;;;0.10;0.10;;;20.40;99.90;;;;;;5074740;28;20469;-83
2023/05/19 12:31:34;;;;;;;0.10;0.10;;;20.70;99.90;;;;;;5072999;28;20201;-82
2023/05/19 12:34:00;;;;;;;0.10;0.10;;;20.20;99.90;;;;;;5063984;28;20204;-83
2023/05/19 12:36:27;;;;;;;0.10;0.10;;;20.90;99.90;;;;;;5060504;28;22258;-83
2023/05/19 12:38:56;;;;;;;0.10;0.10;;;20.80;99.90;;;;;;5061108;28;20193;-83
2023/05/19 12:41:24;;;;;;;0.10;0.10;;;21.20;99.90;;;;;;5074154;28;20201;-83
2023/05/19 12:43:49;;;;;;;0.10;0.10;;;21.20;99.90;;;;;;5073802;28;20197;-83
2023/05/19 12:46:17;;;;;;;0.10;0.10;;;20.60;99.90;;;;;;5072489;28;20184;-83
2023/05/19 12:48:44;;;;;;;0.10;0.10;;;20.10;99.90;;;;;;5073674;28;20185;-83
2023/05/19 12:51:14;;;;;;;0.10;0.10;;;20.10;99.90;;;;;;5072678;28;20204;-83